KDMO/DMO METAR and TAF weather

Enter ICAO airport designator
Station Type Date Time Source
KDMO METAR 2018/01/16 08:53 UTC NOAA

KDMO 160853Z AUTO 30008KT 10SM CLR M18/M22 A3067 RMK AO2 SLP407 T11831217 53002


Station Type Date Time Source
KDMO Decoded METAR 2018/01/16 08:53 UTC NOAA

SEDALIA MEMORIAL AIRPORT, MO, United States (KDMO) 38-43N 93-10W 274M
Jan 16, 2018 - 03:53 AM EST / 2018.01.16 0853 UTC
Wind: from the WNW (300 degrees) at 9 MPH (8 KT):0
Visibility: 10 mile(s):0
Sky conditions: clear
Temperature: -0.9 F (-18.3 C)
Windchill: -16 F (-27 C):2
Dew Point: -7.1 F (-21.7 C)
Relative Humidity: 74%
Pressure (altimeter): 30.67 in. Hg (1038 hPa)
Pressure tendency: 0.01 inches (0.2 hPa) higher than three hours ago
ob: KDMO 160853Z AUTO 30008KT 10SM CLR M18/M22 A3067 RMK AO2 SLP407 T11831217 53002
cycle: 9

Station Type Date Time Source
KDMO TAF UTC NOAA

Error!


Example: see airport list